createdAt,value
2024-05-09T00:00:51.177Z,102436.13
2024-05-09T00:03:21.449Z,102436.22
2024-05-09T00:05:51.745Z,102435.75
2024-05-09T00:08:24.666Z,102437.41
2024-05-09T00:10:55.002Z,102439.31
2024-05-09T00:13:25.108Z,102435.31
2024-05-09T00:15:55.381Z,102432.03
2024-05-09T00:18:25.697Z,102434.38
2024-05-09T00:20:55.863Z,102429.91
2024-05-09T00:23:29.425Z,102429.56
2024-05-09T00:25:59.720Z,102428.72
2024-05-09T00:28:29.840Z,102427.09
2024-05-09T00:30:59.997Z,102425.47
2024-05-09T00:33:30.271Z,102435.13
2024-05-09T00:36:00.479Z,102425.47
2024-05-09T00:38:33.353Z,102432.75
2024-05-09T00:41:03.571Z,102431.94
2024-05-09T00:43:33.619Z,102427.56
2024-05-09T00:46:03.850Z,102431.56
2024-05-09T00:48:34.556Z,102423.06
2024-05-09T00:51:05.276Z,102432.03
2024-05-09T00:53:38.250Z,102423.06
2024-05-09T00:56:08.791Z,102428.72
2024-05-09T00:58:39.018Z,102425.09
2024-05-09T01:01:09.690Z,102421.44
2024-05-09T01:03:39.863Z,102421.44
2024-05-09T01:06:10.474Z,102428.72
2024-05-09T01:08:43.572Z,102423.06
2024-05-09T01:11:13.968Z,102425.47
2024-05-09T01:13:45.101Z,102436.75
2024-05-09T01:16:16.641Z,102435.13
2024-05-09T01:18:46.797Z,102436.75
2024-05-09T01:21:17.101Z,102435.84
2024-05-09T01:23:50.041Z,102435.13
2024-05-09T01:26:20.326Z,102432.31
2024-05-09T01:28:50.537Z,102431.81
2024-05-09T01:31:20.708Z,102431.13
2024-05-09T01:33:50.909Z,102431.00
2024-05-09T01:36:21.554Z,102432.31
2024-05-09T01:38:54.358Z,102439.16
2024-05-09T01:41:24.485Z,102437.56
2024-05-09T01:43:54.624Z,102431.13
2024-05-09T01:46:24.759Z,102435.13
2024-05-09T01:48:55.006Z,102420.53
2024-05-09T01:51:25.232Z,102429.47
2024-05-09T01:53:59.584Z,102428.19
2024-05-09T01:56:29.767Z,102423.81
2024-05-09T01:59:00.019Z,102427.84
2024-05-09T02:01:30.311Z,102428.66
2024-05-09T02:04:20.608Z,102420.53
2024-05-09T02:06:50.831Z,102431.13
2024-05-09T02:09:23.642Z,102428.28
2024-05-09T02:11:53.862Z,102426.19
2024-05-09T02:14:24.334Z,102423.00
2024-05-09T02:16:54.715Z,102423.44
2024-05-09T02:19:24.950Z,102423.34
2024-05-09T02:21:55.058Z,102427.38
2024-05-09T02:24:27.881Z,102426.91
2024-05-09T02:26:58.040Z,102425.34
2024-05-09T02:29:28.232Z,102426.19
2024-05-09T02:31:58.687Z,102422.91
2024-05-09T02:34:28.958Z,102414.88
2024-05-09T02:36:59.226Z,102416.88
2024-05-09T02:39:29.347Z,102418.88
2024-05-09T02:41:59.434Z,102423.72
2024-05-09T02:44:26.962Z,102418.88
2024-05-09T02:46:56.966Z,102410.06
2024-05-09T02:49:24.617Z,102416.44
2024-05-09T02:51:54.712Z,102418.88
2024-05-09T02:54:22.090Z,102410.88
2024-05-09T02:56:54.784Z,102419.72
2024-05-09T02:59:22.312Z,102418.19
2024-05-09T03:01:52.925Z,102414.88
2024-05-09T03:04:20.485Z,102416.53
2024-05-09T03:06:50.599Z,102410.88
2024-05-09T03:09:18.147Z,102407.59
2024-05-09T03:11:48.276Z,102422.19
2024-05-09T03:14:19.742Z,102419.38
2024-05-09T03:16:50.180Z,102423.81
2024-05-09T03:19:17.680Z,102414.88
2024-05-09T03:21:47.799Z,102423.00
2024-05-09T03:24:15.146Z,102420.53
2024-05-09T03:26:45.366Z,102421.38
2024-05-09T03:29:12.794Z,102419.38
2024-05-09T03:31:45.683Z,102418.19
2024-05-09T03:34:13.102Z,102421.38
2024-05-09T03:36:44.495Z,102416.53
2024-05-09T03:39:14.626Z,102420.53
2024-05-09T03:41:44.730Z,102429.00
2024-05-09T03:44:14.840Z,102422.91
2024-05-09T03:46:44.886Z,102424.53
2024-05-09T03:49:15.344Z,102436.66
2024-05-09T03:51:43.196Z,102428.19
2024-05-09T03:54:13.215Z,102435.84
2024-05-09T03:56:42.964Z,102423.81
2024-05-09T03:59:13.123Z,102433.50
2024-05-09T04:01:40.606Z,102429.47
2024-05-09T04:04:13.485Z,102431.81
2024-05-09T04:06:40.808Z,102429.00
2024-05-09T04:09:10.828Z,102430.19
2024-05-09T04:11:38.403Z,102433.38
2024-05-09T04:14:08.592Z,102433.50
2024-05-09T04:16:36.157Z,102427.84
2024-05-09T04:19:06.547Z,102435.03
2024-05-09T04:21:36.756Z,102433.38
2024-05-09T04:24:06.960Z,102424.09
2024-05-09T04:26:34.404Z,102428.09
2024-05-09T04:29:04.731Z,102434.22
2024-05-09T04:31:36.458Z,102427.38
2024-05-09T04:34:06.759Z,102430.94
2024-05-09T04:36:43.183Z,102435.41
2024-05-09T04:39:11.905Z,102433.75
2024-05-09T04:41:42.036Z,102431.38
2024-05-09T04:44:09.462Z,102431.75
2024-05-09T04:46:40.121Z,102429.75
2024-05-09T04:49:07.619Z,102437.41
2024-05-09T04:51:40.605Z,102441.03
2024-05-09T04:54:10.728Z,102441.03
2024-05-09T04:56:43.215Z,102439.84
2024-05-09T04:59:10.619Z,102439.84
2024-05-09T05:01:40.688Z,102443.13
2024-05-09T05:04:08.085Z,102438.66
2024-05-09T05:06:40.821Z,102449.53
2024-05-09T05:09:08.236Z,102449.53
2024-05-09T05:11:38.454Z,102445.50
2024-05-09T05:14:06.014Z,102437.03
2024-05-09T05:16:36.104Z,102447.13
2024-05-09T05:19:03.949Z,102446.69
2024-05-09T05:21:34.945Z,102442.31
2024-05-09T05:24:05.677Z,102458.44
2024-05-09T05:26:36.082Z,102455.16
2024-05-09T05:29:04.097Z,102444.69
2024-05-09T05:31:34.213Z,102445.50
2024-05-09T05:34:01.585Z,102449.97
2024-05-09T05:36:31.645Z,102446.31
2024-05-09T05:38:59.035Z,102447.63
2024-05-09T05:41:32.007Z,102452.78
2024-05-09T05:44:02.143Z,102441.97
2024-05-09T05:46:29.580Z,102440.78
2024-05-09T05:48:59.833Z,102439.16
2024-05-09T05:51:27.538Z,102446.81
2024-05-09T05:53:58.134Z,102445.59
2024-05-09T05:56:26.607Z,102440.78
2024-05-09T05:59:00.541Z,102448.78
2024-05-09T06:01:28.017Z,102446.44
2024-05-09T06:03:58.297Z,102444.78
2024-05-09T06:06:26.620Z,102449.63
2024-05-09T06:08:57.979Z,102447.25
2024-05-09T06:11:25.498Z,102445.13
2024-05-09T06:13:56.380Z,102455.28
2024-05-09T06:16:26.469Z,102446.44
2024-05-09T06:18:56.609Z,102454.53
2024-05-09T06:21:24.220Z,102437.56
2024-05-09T06:23:55.022Z,102443.22
2024-05-09T06:26:22.409Z,102444.88
2024-05-09T06:28:52.594Z,102442.41
2024-05-09T06:31:19.976Z,102442.41
2024-05-09T06:33:52.934Z,102440.78
2024-05-09T06:36:20.379Z,102440.78
2024-05-09T06:38:50.503Z,102435.56
2024-05-09T06:41:17.989Z,102433.56
2024-05-09T06:43:48.188Z,102428.72
2024-05-09T06:46:15.690Z,102428.72
2024-05-09T06:48:48.478Z,102432.38
2024-05-09T06:51:19.286Z,102431.22
2024-05-09T06:53:49.345Z,102427.09
2024-05-09T06:56:16.810Z,102433.94
2024-05-09T06:58:46.976Z,102427.09
2024-05-09T07:01:14.474Z,102429.47
2024-05-09T07:03:45.766Z,102426.66
2024-05-09T07:06:13.760Z,102424.66
2024-05-09T07:08:48.059Z,102427.84
2024-05-09T07:11:16.265Z,102422.63
2024-05-09T07:13:46.477Z,102423.91
2024-05-09T07:16:13.866Z,102428.72
2024-05-09T07:18:44.038Z,102425.47
2024-05-09T07:21:11.657Z,102426.28
2024-05-09T07:23:46.132Z,102415.78
2024-05-09T07:26:18.262Z,102421.44
2024-05-09T07:28:48.566Z,102420.25
2024-05-09T07:31:16.611Z,102409.69
2024-05-09T07:33:46.799Z,102422.25
2024-05-09T07:36:14.155Z,102420.72
2024-05-09T07:38:44.395Z,102421.53
2024-05-09T07:41:11.774Z,102414.25
2024-05-09T07:43:44.609Z,102425.63
2024-05-09T07:53:53.267Z,102412.06
2024-05-09T07:56:24.311Z,102412.06
2024-05-09T07:58:58.269Z,102410.03
2024-05-09T08:01:27.245Z,102408.03
2024-05-09T08:03:57.802Z,102410.59
2024-05-09T08:06:26.286Z,102403.66
2024-05-09T08:08:57.911Z,102417.91
2024-05-09T08:11:26.998Z,102409.88
2024-05-09T08:13:59.745Z,102411.50
2024-05-09T08:16:27.156Z,102408.28
2024-05-09T08:18:57.356Z,102404.31
2024-05-09T08:21:24.875Z,102405.94
2024-05-09T08:23:54.930Z,102403.56
2024-05-09T08:26:22.287Z,102400.34
2024-05-09T08:28:52.371Z,102408.50
2024-05-09T08:31:22.718Z,102404.47
2024-05-09T08:33:54.810Z,102394.81
2024-05-09T08:36:22.523Z,102400.53
2024-05-09T08:38:52.636Z,102393.25
2024-05-09T08:41:20.130Z,102339.50
2024-05-09T08:43:50.330Z,102390.78
2024-05-09T08:46:19.258Z,102391.53
2024-05-09T08:48:52.886Z,102387.41
2024-05-09T08:51:20.674Z,102396.28
2024-05-09T08:53:51.038Z,102394.63
2024-05-09T08:56:20.936Z,102398.66
2024-05-09T08:58:52.362Z,102391.34
2024-05-09T09:01:20.171Z,102392.09
2024-05-09T09:03:54.800Z,102390.81
2024-05-09T09:06:22.407Z,102387.16
2024-05-09T09:08:52.528Z,102389.09
2024-05-09T09:11:20.051Z,102381.44
2024-05-09T09:13:50.281Z,102392.38
2024-05-09T09:16:17.760Z,102379.44
2024-05-09T09:18:48.218Z,102386.28
2024-05-09T09:21:18.557Z,102380.16
2024-05-09T09:23:48.600Z,102387.00
2024-05-09T09:26:16.556Z,102384.88
2024-05-09T09:28:47.739Z,102377.59
2024-05-09T09:31:18.475Z,102374.78
2024-05-09T09:33:48.811Z,102382.06
2024-05-09T09:36:19.502Z,102382.81
2024-05-09T09:38:51.133Z,102375.53
2024-05-09T09:41:23.143Z,102381.50
2024-05-09T09:43:53.415Z,102373.88
2024-05-09T09:46:21.320Z,102382.69
2024-05-09T09:48:51.873Z,102376.25
2024-05-09T09:51:22.707Z,102375.41
2024-05-09T09:53:56.648Z,102374.59
2024-05-09T09:56:27.349Z,102375.41
2024-05-09T09:59:02.988Z,102370.16
2024-05-09T10:01:33.375Z,102371.78
2024-05-09T10:04:05.948Z,102373.03
2024-05-09T10:06:37.950Z,102365.84
2024-05-09T10:09:08.156Z,102364.22
2024-05-09T10:11:42.064Z,102363.47
2024-05-09T10:14:23.323Z,102369.13
2024-05-09T10:16:50.740Z,102369.59
2024-05-09T10:19:30.507Z,102368.78
2024-05-09T10:22:04.213Z,102370.31
2024-05-09T10:24:49.331Z,102364.22
2024-05-09T10:27:16.728Z,102357.47
2024-05-09T10:29:56.754Z,102368.56
2024-05-09T10:32:24.432Z,102365.84
2024-05-09T10:35:03.764Z,102362.66
2024-05-09T10:37:34.609Z,102353.81
2024-05-09T10:40:11.935Z,102352.16
2024-05-09T10:42:45.091Z,102354.66
2024-05-09T10:45:15.186Z,102344.16
2024-05-09T10:47:43.076Z,102340.03
2024-05-09T10:50:22.224Z,102346.50
2024-05-09T10:53:00.524Z,102333.69
2024-05-09T10:55:30.630Z,102332.47
2024-05-09T10:57:59.341Z,102329.28
2024-05-09T11:00:36.558Z,102326.00
2024-05-09T11:03:07.851Z,102321.63
2024-05-09T11:05:43.265Z,102330.47
2024-05-09T11:08:15.925Z,102330.84
2024-05-09T11:10:49.267Z,102326.72
2024-05-09T11:13:27.813Z,102323.91
2024-05-09T11:16:01.533Z,102311.41
2024-05-09T11:18:34.834Z,102310.25
2024-05-09T11:21:15.768Z,102298.94
2024-05-09T11:23:47.849Z,102305.75
2024-05-09T11:26:26.432Z,102311.88
2024-05-09T11:28:53.893Z,102304.59
2024-05-09T11:31:24.045Z,102313.91
2024-05-09T11:33:54.192Z,102312.59
2024-05-09T11:36:24.346Z,102311.06
2024-05-09T11:38:54.443Z,102304.59
2024-05-09T11:41:24.577Z,102299.75
2024-05-09T11:43:52.153Z,102303.84
2024-05-09T11:46:22.329Z,102299.81
2024-05-09T11:48:49.971Z,102298.19
2024-05-09T11:51:20.172Z,102295.84
2024-05-09T11:53:47.724Z,102285.25
2024-05-09T11:56:20.570Z,102282.88
2024-05-09T11:58:48.019Z,102280.53
2024-05-09T12:01:20.305Z,102281.34
2024-05-09T12:03:49.774Z,102278.13
2024-05-09T12:06:20.429Z,102282.16
2024-05-09T12:08:47.852Z,102287.81
2024-05-09T12:11:20.687Z,102274.50
2024-05-09T12:13:48.150Z,102282.16
2024-05-09T12:16:18.326Z,102274.88
2024-05-09T12:18:45.864Z,102276.06
2024-05-09T12:21:17.623Z,102272.47
2024-05-09T12:23:45.062Z,102267.59
2024-05-09T12:26:16.050Z,102266.00
2024-05-09T12:28:46.258Z,102268.03
2024-05-09T12:31:16.564Z,102259.53
2024-05-09T12:33:44.168Z,102252.25
2024-05-09T12:36:14.385Z,102253.88
2024-05-09T12:38:41.985Z,102247.03
2024-05-09T12:41:12.048Z,102253.13
2024-05-09T12:43:39.455Z,102245.84
2024-05-09T12:46:12.462Z,102239.38
2024-05-09T12:48:40.074Z,102239.38
2024-05-09T12:51:10.314Z,102226.81
2024-05-09T12:53:37.714Z,102233.72
2024-05-09T12:56:09.397Z,102228.88
2024-05-09T12:58:37.277Z,102227.69
2024-05-09T13:01:07.531Z,102226.53
2024-05-09T13:03:37.849Z,102218.94
2024-05-09T13:06:08.135Z,102208.09
2024-05-09T13:08:35.660Z,102206.47
2024-05-09T13:11:05.793Z,102206.47
2024-05-09T13:13:33.173Z,102198.31
2024-05-09T13:16:03.215Z,102201.97
2024-05-09T13:18:30.731Z,102194.69
2024-05-09T13:21:03.596Z,102190.22
2024-05-09T13:23:30.994Z,102192.69
2024-05-09T13:26:01.091Z,102183.84
2024-05-09T13:28:28.481Z,102182.19
2024-05-09T13:30:58.957Z,102185.00
2024-05-09T13:33:29.166Z,102178.19
2024-05-09T13:35:56.805Z,102185.91
2024-05-09T13:38:29.622Z,102179.81
2024-05-09T13:40:57.064Z,102176.63
2024-05-09T13:43:27.223Z,102172.97
2024-05-09T13:45:55.981Z,102169.34
2024-05-09T13:48:26.342Z,102170.16
2024-05-09T13:50:53.858Z,102168.53
2024-05-09T13:53:25.418Z,102156.84
2024-05-09T13:55:55.611Z,102162.88
2024-05-09T13:58:26.354Z,102161.66
2024-05-09T14:00:53.909Z,102165.31
2024-05-09T14:03:24.844Z,102158.09
2024-05-09T14:05:52.583Z,102158.09
2024-05-09T14:08:23.122Z,102157.34
2024-05-09T14:10:51.052Z,102160.16
2024-05-09T14:13:24.027Z,102163.81
2024-05-09T14:15:51.837Z,102147.66
2024-05-09T14:18:22.137Z,102150.50
2024-05-09T14:20:49.539Z,102150.06
2024-05-09T14:23:20.903Z,102139.56
2024-05-09T14:25:52.187Z,102135.94
2024-05-09T14:28:27.256Z,102129.06
2024-05-09T14:30:56.924Z,102131.47
2024-05-09T14:33:27.845Z,102130.66
2024-05-09T14:35:55.508Z,102124.19
2024-05-09T14:38:26.364Z,102129.00
2024-05-09T14:40:54.069Z,102126.16
2024-05-09T14:43:27.136Z,102132.66
2024-05-09T14:45:56.115Z,102125.75
2024-05-09T14:48:27.245Z,102080.47
2024-05-09T14:50:54.780Z,102119.34
2024-05-09T14:53:30.083Z,102120.16
2024-05-09T14:55:57.954Z,102111.22
2024-05-09T14:58:31.053Z,102105.53
2024-05-09T15:00:58.760Z,102108.69
2024-05-09T15:03:28.967Z,102111.09
2024-05-09T15:05:56.512Z,102095.75
2024-05-09T15:08:26.703Z,102100.69
2024-05-09T15:10:54.255Z,102098.28
2024-05-09T15:13:24.956Z,102101.50
2024-05-09T15:15:56.177Z,102102.75
2024-05-09T15:18:27.020Z,102094.25
2024-05-09T15:20:54.586Z,102087.06
2024-05-09T15:23:24.694Z,102078.13
2024-05-09T15:25:52.075Z,102077.31
2024-05-09T15:28:22.312Z,102080.59
2024-05-09T15:30:49.806Z,102084.22
2024-05-09T15:33:22.832Z,102078.19
2024-05-09T15:35:51.094Z,102077.38
2024-05-09T15:38:21.201Z,102068.53
2024-05-09T15:40:48.797Z,102072.16
2024-05-09T15:43:19.223Z,102061.25
2024-05-09T15:45:46.793Z,102077.81
2024-05-09T15:48:17.338Z,102062.88
2024-05-09T15:50:47.563Z,102066.88
2024-05-09T15:53:18.128Z,102069.34
2024-05-09T15:55:45.564Z,102071.34
2024-05-09T15:58:16.280Z,102071.81
2024-05-09T16:00:45.595Z,102065.34
2024-05-09T16:03:17.517Z,102068.16
2024-05-09T16:05:48.289Z,102064.50
2024-05-09T16:08:19.089Z,102067.31
2024-05-09T16:10:47.591Z,102065.69
2024-05-09T16:13:19.973Z,102063.31
2024-05-09T16:15:47.698Z,102064.50
2024-05-09T16:18:18.056Z,102064.50
2024-05-09T16:20:50.066Z,102067.78
2024-05-09T16:23:20.574Z,102058.03
2024-05-09T16:25:48.608Z,102062.88
2024-05-09T16:28:20.220Z,102058.84
2024-05-09T16:30:48.443Z,102064.06
2024-05-09T16:33:19.717Z,102061.25
2024-05-09T16:35:50.557Z,102050.75
2024-05-09T16:38:20.832Z,102060.50
2024-05-09T16:40:48.292Z,102052.03
2024-05-09T16:43:19.553Z,102059.69
2024-05-09T16:45:47.885Z,102056.47
2024-05-09T16:48:19.696Z,102056.41
2024-05-09T16:50:50.861Z,102054.38
2024-05-09T16:53:21.896Z,102049.53
2024-05-09T16:55:49.588Z,102053.19
2024-05-09T16:58:19.803Z,102054.84
2024-05-09T17:00:47.461Z,102054.84
2024-05-09T17:03:17.763Z,102048.00
2024-05-09T17:05:47.033Z,102052.84
2024-05-09T17:08:20.835Z,102059.31
2024-05-09T17:10:49.510Z,102045.16
2024-05-09T17:13:20.605Z,102052.84
2024-05-09T17:15:51.503Z,102052.03
2024-05-09T17:18:22.918Z,102048.38
2024-05-09T17:20:53.374Z,102050.00
2024-05-09T17:23:25.790Z,102047.53
2024-05-09T17:25:56.094Z,102045.16
2024-05-09T17:28:23.934Z,102043.53
2024-05-09T17:30:54.219Z,102040.25
2024-05-09T17:33:21.812Z,102037.88
2024-05-09T17:35:53.158Z,102040.72
2024-05-09T17:38:24.218Z,102049.19
2024-05-09T17:40:55.262Z,102049.19
2024-05-09T17:43:23.941Z,102044.72
2024-05-09T17:45:54.191Z,102047.53
2024-05-09T17:48:22.014Z,102044.34
2024-05-09T17:50:52.185Z,102049.19
2024-05-09T17:53:20.411Z,102047.53
2024-05-09T17:55:54.127Z,102046.38
2024-05-09T17:58:23.161Z,102044.72
2024-05-09T18:00:54.108Z,102038.69
2024-05-09T18:03:25.505Z,102043.97
2024-05-09T18:05:56.317Z,102043.53
2024-05-09T18:08:23.756Z,102043.97
2024-05-09T18:10:56.623Z,102049.19
2024-05-09T18:13:24.202Z,102046.72
2024-05-09T18:15:54.387Z,102047.09
2024-05-09T18:18:21.981Z,102049.94
2024-05-09T18:20:53.040Z,102053.97
2024-05-09T18:23:20.432Z,102055.16
2024-05-09T18:25:54.891Z,102064.44
2024-05-09T18:28:25.591Z,102055.59
2024-05-09T18:30:55.938Z,102058.78
2024-05-09T18:33:24.986Z,102056.78
2024-05-09T18:35:55.527Z,102053.16
2024-05-09T18:38:27.128Z,102056.34
2024-05-09T18:40:57.549Z,102054.69
2024-05-09T18:43:34.835Z,102060.34
2024-05-09T18:46:08.691Z,102059.53
2024-05-09T18:48:36.541Z,102066.47
2024-05-09T18:51:07.295Z,102070.09
2024-05-09T18:53:35.007Z,102074.94
2024-05-09T18:56:05.188Z,102076.56
2024-05-09T18:58:35.225Z,102087.06
2024-05-09T19:01:05.613Z,102074.94
2024-05-09T19:03:33.436Z,102073.31
2024-05-09T19:06:03.969Z,102074.94
2024-05-09T19:08:31.561Z,102087.06
2024-05-09T19:11:03.270Z,102076.56
2024-05-09T19:13:31.344Z,102081.41
2024-05-09T19:16:04.339Z,102088.63
2024-05-09T19:18:31.894Z,102091.91
2024-05-09T19:21:02.087Z,102088.63
2024-05-09T19:23:32.579Z,102098.28
2024-05-09T19:26:03.450Z,102086.97
2024-05-09T19:28:30.916Z,102094.25
2024-05-09T19:31:03.770Z,102088.63
2024-05-09T19:33:32.392Z,102098.28
2024-05-09T19:36:02.551Z,102091.91
2024-05-09T19:38:30.034Z,102094.25
2024-05-09T19:41:00.108Z,102090.28
2024-05-09T19:43:32.279Z,102094.25
2024-05-09T19:46:04.046Z,102092.63
2024-05-09T19:48:34.396Z,102099.47
2024-05-09T19:51:03.067Z,102099.91
2024-05-09T19:53:34.060Z,102099.09
2024-05-09T19:56:01.649Z,102111.22
2024-05-09T19:58:31.717Z,102106.38
2024-05-09T20:00:59.340Z,102113.63
2024-05-09T20:03:37.081Z,102113.63
2024-05-09T20:06:05.171Z,102120.09
2024-05-09T20:08:35.278Z,102114.44
2024-05-09T20:11:02.570Z,102115.25
2024-05-09T20:13:33.015Z,102120.91
2024-05-09T20:16:01.715Z,102112.00
2024-05-09T20:18:34.725Z,102120.47
2024-05-09T20:21:02.547Z,102117.63
2024-05-09T20:23:33.030Z,102115.25
2024-05-09T20:26:00.722Z,102114.81
2024-05-09T20:28:30.804Z,102115.25
2024-05-09T20:30:58.693Z,102120.09
2024-05-09T20:33:29.925Z,102109.16
2024-05-09T20:36:02.159Z,102110.38
2024-05-09T20:38:32.764Z,102112.00
2024-05-09T20:41:00.251Z,102111.59
2024-05-09T20:43:30.420Z,102107.97
2024-05-09T20:45:57.844Z,102114.81
2024-05-09T20:48:28.125Z,102110.38
2024-05-09T20:50:55.544Z,102116.00
2024-05-09T20:53:28.248Z,102117.19
2024-05-09T20:55:55.615Z,102117.56
2024-05-09T20:58:25.839Z,102106.63
2024-05-09T21:00:53.426Z,102117.19
2024-05-09T21:03:23.703Z,102115.19
2024-05-09T21:05:51.303Z,102111.53
2024-05-09T21:08:22.761Z,102116.00
2024-05-09T21:10:53.516Z,102111.53
2024-05-09T21:13:23.725Z,102107.06
2024-05-09T21:15:51.641Z,102111.09
2024-05-09T21:18:21.898Z,102108.25
2024-05-09T21:20:49.355Z,102112.72
2024-05-09T21:23:19.455Z,102116.00
2024-05-09T21:25:49.643Z,102109.91
2024-05-09T21:28:19.885Z,102121.66
2024-05-09T21:30:50.092Z,102119.66
2024-05-09T21:33:17.634Z,102109.47
2024-05-09T21:35:47.717Z,102116.75
2024-05-09T21:38:15.494Z,102122.41
2024-05-09T21:40:46.100Z,102114.72
2024-05-09T21:43:14.642Z,102107.88
2024-05-09T21:45:47.676Z,102109.53
2024-05-09T21:48:15.242Z,102109.91
2024-05-09T21:50:45.455Z,102111.53
2024-05-09T21:53:13.512Z,102108.69
2024-05-09T21:55:44.384Z,102116.00
2024-05-09T21:58:12.142Z,102112.00
2024-05-09T22:00:43.163Z,102114.81
2024-05-09T22:03:14.477Z,102112.00
2024-05-09T22:05:45.412Z,102108.69
2024-05-09T22:08:14.298Z,102108.69
2024-05-09T22:10:44.532Z,102107.88
2024-05-09T22:13:12.118Z,102104.72
2024-05-09T22:15:42.928Z,102104.25
2024-05-09T22:18:13.341Z,102104.25
2024-05-09T22:20:45.839Z,102103.88
2024-05-09T22:23:14.479Z,102103.06
2024-05-09T22:25:44.802Z,102100.69
2024-05-09T22:28:13.551Z,102103.88
2024-05-09T22:30:46.562Z,102105.88
2024-05-09T22:33:18.384Z,102109.53
2024-05-09T22:35:48.631Z,102107.06
2024-05-09T22:38:15.985Z,102109.53
2024-05-09T22:40:49.140Z,102112.00
2024-05-09T22:43:18.983Z,102113.91
2024-05-09T22:45:50.027Z,102109.91
2024-05-09T22:48:20.871Z,102108.69
2024-05-09T22:50:51.126Z,102111.91
2024-05-09T22:53:18.544Z,102111.09
2024-05-09T22:55:48.612Z,102105.44
2024-05-09T22:58:16.098Z,102101.41
2024-05-09T23:00:46.336Z,102104.63
2024-05-09T23:03:16.033Z,102103.81
2024-05-09T23:05:48.839Z,102099.78
2024-05-09T23:08:16.376Z,102095.34
2024-05-09T23:10:46.588Z,102106.63
2024-05-09T23:13:14.095Z,102105.44
2024-05-09T23:15:44.303Z,102103.00
2024-05-09T23:18:11.842Z,102097.34
2024-05-09T23:20:41.866Z,102101.28
2024-05-09T23:23:12.329Z,102102.09
2024-05-09T23:25:43.973Z,102100.09
2024-05-09T23:28:11.641Z,102096.84
2024-05-09T23:30:42.513Z,102097.66
2024-05-09T23:33:11.323Z,102098.03
2024-05-09T23:35:41.632Z,102089.97
2024-05-09T23:38:09.100Z,102095.19
2024-05-09T23:40:42.928Z,102089.09
2024-05-09T23:43:11.618Z,102086.25
2024-05-09T23:45:42.792Z,102090.72
2024-05-09T23:48:10.447Z,102087.47
2024-05-09T23:50:41.342Z,102084.63
2024-05-09T23:53:10.254Z,102081.81
2024-05-09T23:55:43.975Z,102083.44
2024-05-09T23:58:11.949Z,102087.47
